< Cyclone 199802 1998 Season Cyclone 199804 >
Cyclone 199803 (SELWYN)
General InformationTrack Information on Google MapsDetailed Wind InformationList of All Images || ResourceGoogle EarthGE AnimationAtom FeedGeoJSON
Detalied Best Track (Time Zone = UTC)
Year Month Day Hour Lat. Long. Pressure (hPa) Wind (kt) Class Image Chart
1997 12 25 16 -11.8 110.9 1006 0 0 Image --
1997 12 25 22 -11.8 111.2 1004 21 2 Image --
1997 12 26 04 -11.9 111.8 1002 23 2 Image --
1997 12 26 10 -12.6 111.8 1000 27 2 Image --
1997 12 26 16 -13.3 111.5 995 35 3 Image --
1997 12 26 22 -13.9 111.0 990 41 3 Image --
1997 12 27 04 -14.4 110.6 985 49 4 Image --
1997 12 27 10 -14.9 110.0 975 60 4 Image --
1997 12 27 16 -15.0 109.4 965 70 5 Image --
1997 12 27 22 -15.4 109.0 960 76 5 Image --
1997 12 28 04 -15.8 108.4 960 76 5 Image --
1997 12 28 10 -16.2 108.0 960 76 5 Image --
1997 12 28 16 -16.3 107.3 965 70 5 Image --
1997 12 28 22 -16.9 106.5 965 70 5 Image --
1997 12 29 04 -17.2 105.7 970 64 5 Image --
1997 12 29 10 -17.1 104.8 970 64 5 Image --
1997 12 29 16 -17.0 104.0 975 60 4 Image --
1997 12 29 22 -17.0 103.2 980 54 4 Image --
1997 12 30 04 -16.9 102.2 985 49 4 Image --
1997 12 30 10 -16.6 101.4 990 41 3 Image --
1997 12 30 16 -16.4 100.7 995 35 3 Image --
1997 12 30 22 -16.3 99.9 998 29 2 Image --
1997 12 31 04 -16.3 99.1 998 29 2 Image --
1997 12 31 10 -16.4 98.3 1000 27 2 Image --
1997 12 31 16 -16.4 97.3 1000 27 2 Image --
1997 12 31 22 -16.5 96.3 1000 27 2 Image --
1998 1 1 04 -16.8 95.3 998 29 2 Image --
1998 1 1 10 -17.1 94.4 998 29 2 Image --
1998 1 1 16 -17.5 93.5 1000 27 2 Image --
1998 1 1 22 -17.9 92.2 1000 27 2 Image --
1998 1 2 04 -18.2 90.8 1000 27 2 Image --
1998 1 2 10 -18.7 89.6 1000 27 2 Image --
1998 1 2 16 -19.2 89.0 1000 27 2 Image --
1998 1 2 22 -19.6 88.3 1000 27 2 Image --
< Cyclone 199802 1998 Season Cyclone 199804 >

Help